Latest Weather Observations for Frankston

IDV60801

Issued at 3:32 pm EDT Saturday 22 February 2020 (issued every 10 minutes, with the page automatically refreshed every 10 minutes)

About weather observations | Map of weather stations | Latest weather observations for VIC | Other Formats
Station Details ID: 086371 Name: FRANKSTON AWS Lat: -38.15 Lon: 145.12 Height: 6.0 m
Data from the previous 72 hours. | See also: Recent months at Frankston
Date/Time
EDT
Temp
°C
App
Temp
°C
Dew
Point
°C
Rel
Hum
%
Delta-T
°C
Wind Press
QNH
hPa
Press
MSL
hPa
Rain since
9am
mm
Dir  Spd
km/h
Gust
km/h
Spd
kts
Gust
kts
22/03:30pm - - - - - SSE 17 28 9 15 - - -
22/03:00pm - - - - - SSE 13 28 7 15 - - -
22/02:30pm - - - - - SE 15 24 8 13 - - -
22/02:00pm - - - - - S 11 20 6 11 - - -
22/01:30pm - - - - - SSE 13 24 7 13 - - -
22/01:00pm - - - - - SSE 13 22 7 12 - - -
22/12:30pm - - - - - SSE 13 24 7 13 - - -
22/12:00pm - - - - - ESE 13 28 7 15 - - -
22/11:30am - - - - - SSE 15 26 8 14 - - -
22/11:00am - - - - - SE 15 24 8 13 - - -
22/10:30am - - - - - SSE 15 26 8 14 - - -
22/10:00am - - - - - SSE 13 20 7 11 - - -
22/09:30am - - - - - SSE 11 19 6 10 - - -
22/09:00am - - - - - SSE 9 17 5 9 - - -
22/08:30am - - - - - S 9 13 5 7 - - -
22/08:00am - - - - - SSW 7 11 4 6 - - -
22/07:30am - - - - - S 7 9 4 5 - - -
22/07:00am - - - - - SSW 9 11 5 6 - - -
22/06:30am - - - - - S 7 11 4 6 - - -
22/06:00am - - - - - S 9 11 5 6 - - -
22/05:30am - - - - - SSW 9 11 5 6 - - -
22/05:00am - - - - - S 9 11 5 6 - - -
22/04:30am - - - - - S 7 9 4 5 - - -
22/04:00am - - - - - S 7 9 4 5 - - -
22/03:30am - - - - - S 7 9 4 5 - - -
22/03:00am - - - - - S 7 9 4 5 - - -
22/02:30am - - - - - SSE 6 9 3 5 - - -
22/02:00am - - - - - SSE 7 9 4 5 - - -
22/01:30am - - - - - S 7 11 4 6 - - -
22/01:00am - - - - - SSE 7 9 4 5 - - -
22/12:30am - - - - - SSE 7 11 4 6 - - -
22/12:00am - - - - - SSE 7 9 4 5 - - -
 
Date/Time
EDT
Temp
°C
App
Temp
°C
Dew
Point
°C
Rel
Hum
%
Delta-T
°C
Wind Press
QNH
hPa
Press
MSL
hPa
Rain since
9am
mm
Dir  Spd
km/h
Gust
km/h
Spd
kts
Gust
kts
21/11:30pm - - - - - S 4 11 2 6 - - -
21/11:00pm - - - - - S 9 11 5 6 - - -
21/10:30pm - - - - - S 9 13 5 7 - - -
21/10:00pm - - - - - SSE 7 13 4 7 - - -
21/09:30pm - - - - - S 9 13 5 7 - - -
21/09:00pm - - - - - S 9 15 5 8 - - -
21/08:30pm - - - - - S 11 19 6 10 - - -
21/08:00pm - - - - - S 15 26 8 14 - - -
21/07:30pm - - - - - S 15 26 8 14 - - -
21/07:00pm - - - - - S 13 24 7 13 - - -
21/06:30pm - - - - - S 15 30 8 16 - - -
21/06:00pm - - - - - SSW 20 32 11 17 - - -
21/05:30pm - - - - - SSW 17 30 9 16 - - -
21/05:00pm - - - - - SW 19 30 10 16 - - -
21/04:30pm - - - - - SSW 15 30 8 16 - - -
21/04:00pm - - - - - S 15 30 8 16 - - -
21/03:30pm - - - - - SW 15 22 8 12 - - -
21/03:00pm - - - - - SSW 17 32 9 17 - - -
21/02:30pm - - - - - SSW 17 26 9 14 - - -
21/02:00pm - - - - - S 13 20 7 11 - - -
21/01:30pm - - - - - S 17 28 9 15 - - -
21/01:00pm - - - - - S 13 26 7 14 - - -
21/12:30pm - - - - - SSE 11 19 6 10 - - -
21/12:00pm - - - - - SSE 17 24 9 13 - - -
21/11:30am - - - - - SSE 15 28 8 15 - - -
21/11:00am - - - - - S 15 28 8 15 - - -
21/10:30am - - - - - S 13 22 7 12 - - -
21/10:00am - - - - - S 9 17 5 9 - - -
21/09:30am - - - - - SSW 15 24 8 13 - - -
21/09:00am - - - - - S 13 19 7 10 - - -
21/08:30am - - - - - SSW 9 13 5 7 - - -
21/08:00am - - - - - CALM 0 6 0 3 - - -
21/07:30am - - - - - CALM 0 0 0 0 - - -
21/07:00am - - - - - SE 6 7 3 4 - - -
21/06:30am - - - - - SSE 11 15 6 8 - - -
21/06:00am - - - - - S 11 13 6 7 - - -
21/05:30am - - - - - S 9 13 5 7 - - -
21/05:00am - - - - - S 7 9 4 5 - - -
21/04:30am - - - - - SSW 9 13 5 7 - - -
21/04:00am - - - - - SSW 13 17 7 9 - - -
21/03:30am - - - - - CALM 0 0 0 0 - - -
21/03:00am - - - - - S 7 9 4 5 - - -
21/02:30am - - - - - SSW 7 9 4 5 - - -
21/02:00am - - - - - SSW 11 17 6 9 - - -
21/01:30am - - - - - WSW 17 28 9 15 - - -
21/01:00am - - - - - S 11 17 6 9 - - -
21/12:30am - - - - - S 9 11 5 6 - - -
21/12:00am - - - - - SSW 7 11 4 6 - - -
 
Date/Time
EDT
Temp
°C
App
Temp
°C
Dew
Point
°C
Rel
Hum
%
Delta-T
°C
Wind Press
QNH
hPa
Press
MSL
hPa
Rain since
9am
mm
Dir  Spd
km/h
Gust
km/h
Spd
kts
Gust
kts
20/11:30pm - - - - - SSW 9 17 5 9 - - -
20/11:00pm - - - - - SSW 11 19 6 10 - - -
20/10:30pm - - - - - S 7 9 4 5 - - -
20/10:00pm - - - - - SSW 11 17 6 9 - - -
20/09:30pm - - - - - SSW 13 17 7 9 - - -
20/09:00pm - - - - - SSW 11 19 6 10 - - -
20/08:30pm - - - - - SW 13 17 7 9 - - -
20/08:00pm - - - - - SW 17 24 9 13 - - -
20/07:30pm - - - - - SW 19 28 10 15 - - -
20/07:00pm - - - - - SW 19 28 10 15 - - -
20/06:30pm - - - - - WSW 24 37 13 20 - - -
20/06:00pm - - - - - WSW 22 28 12 15 - - -
20/05:30pm - - - - - WSW 26 30 14 16 - - -
20/05:00pm - - - - - WSW 28 32 15 17 - - -
20/04:30pm - - - - - W 26 32 14 17 - - -
20/04:00pm - - - - - W 22 30 12 16 - - -
20/03:30pm - - - - - W 22 26 12 14 - - -
20/03:00pm - - - - - WSW 24 30 13 16 - - -
20/02:30pm - - - - - WSW 24 35 13 19 - - -
20/02:00pm - - - - - WSW 17 24 9 13 - - -
20/01:30pm - - - - - WSW 19 28 10 15 - - -
20/01:00pm - - - - - WSW 22 30 12 16 - - -
20/12:30pm - - - - - SW 13 17 7 9 - - -
20/12:00pm - - - - - SW 17 24 9 13 - - -
20/11:30am - - - - - SW 17 22 9 12 - - -
20/11:00am - - - - - SW 15 20 8 11 - - -
20/10:30am - - - - - SW 19 26 10 14 - - -
20/10:00am - - - - - WSW 17 24 9 13 - - -
20/09:30am - - - - - SW 20 28 11 15 - - -
20/09:00am - - - - - SW 15 19 8 10 - - -
20/08:30am - - - - - SW 17 26 9 14 - - -
20/08:00am - - - - - SW 17 26 9 14 - - -
20/07:30am - - - - - SW 17 24 9 13 - - -
20/07:00am - - - - - SW 15 20 8 11 - - -
20/06:30am - - - - - SW 15 24 8 13 - - -
20/06:00am - - - - - SW 15 28 8 15 - - -
20/05:30am - - - - - SW 13 20 7 11 - - -
20/05:00am - - - - - SW 15 22 8 12 - - -
20/04:30am - - - - - SW 13 19 7 10 - - -
20/04:00am - - - - - SW 15 20 8 11 - - -
20/03:30am - - - - - SW 17 26 9 14 - - -
20/03:00am - - - - - SW 19 26 10 14 - - -
20/02:30am - - - - - SW 15 22 8 12 - - -
20/02:00am - - - - - SW 13 24 7 13 - - -
20/01:30am - - - - - SW 15 20 8 11 - - -
20/01:00am - - - - - SW 11 15 6 8 - - -
20/12:30am - - - - - SSW 13 19 7 10 - - -
20/12:00am - - - - - SSW 13 19 7 10 - - -
 
Date/Time
EDT
Temp
°C
App
Temp
°C
Dew
Point
°C
Rel
Hum
%
Delta-T
°C
Wind Press
QNH
hPa
Press
MSL
hPa
Rain since
9am
mm
Dir  Spd
km/h
Gust
km/h
Spd
kts
Gust
kts
19/11:30pm - - - - - SW 15 19 8 10 - - -
19/11:00pm - - - - - SW 13 17 7 9 - - -
19/10:30pm - - - - - SW 11 15 6 8 - - -
19/10:00pm - - - - - SSW 13 19 7 10 - - -
19/09:30pm - - - - - SW 17 26 9 14 - - -
19/09:00pm - - - - - WSW 19 26 10 14 - - -
19/08:30pm - - - - - SW 13 17 7 9 - - -
19/08:00pm - - - - - SSW 15 26 8 14 - - -
19/07:30pm - - - - - SW 17 26 9 14 - - -
19/07:00pm - - - - - SW 24 35 13 19 - - -
19/06:30pm - - - - - SW 26 39 14 21 - - -
19/06:00pm - - - - - WSW 35 46 19 25 - - -
19/05:30pm - - - - - SW 28 43 15 23 - - -
19/05:00pm - - - - - WSW 32 43 17 23 - - -
19/04:30pm - - - - - WSW 35 44 19 24 - - -
19/04:00pm - - - - - WSW 35 44 19 24 - - -

Other formats

Comma delimited format used in spreadsheet applications
http://www.bom.gov.au/fwo/IDV60801/IDV60801.94871.axf

JavaScript Object Notation format (JSON) in row-major order
http://www.bom.gov.au/fwo/IDV60801/IDV60801.94871.json

Data quality

Most of these data are generated automatically and are frequently updated. Quality checks on data are not normally performed. It is possible for incorrect values to appear. Refer to information at About Latest Weather Observations and please check the disclaimer before using these data.